Carlisle, United Kingdom

4:44 PM BST on July 31, 2015 (GMT +0100)
Carlisle | | Change Station
CLOSE
Current Station
Airport
Location: Carlisle Airport,
Elevation: 187 ft
Nearby Weather Stations

Elev 187 ft 54.94 °N, 2.81 °W | Updated 24 minutes ago

Scattered Clouds
Scattered Clouds
61 °F
Feels Like 61 °F
N
16
Wind Variable Wind from SW

Today
High -- | Low -- °F
--% Chance of Precip.
Yesterday
High -- | Low -- °F
Precip. -- in
5:17 AM 9:16 PM
Full, 100% visible
Pressure 29.95 in
Visibility 6.2 miles
Clouds Scattered Clouds 2500 ft
Scattered Clouds 3000 ft
Dew Point 45 °F
Humidity 55%
Rainfall 0.00 in
Snow Depth Not available.
UV 5 out of 12
Pollen Not available.
Air Quality Not available.
Flu Activity Not available.
METAR EGNC 311520Z 23014KT 200V260 9999 SCT025 SCT030 16/07 Q1014

More Conditions Fewer Conditions

Pressure 29.95 in
Visibility 6.2 miles
Clouds Scattered Clouds 2500 ft
Scattered Clouds 3000 ft
Dew Point 45 °F
Humidity 55%
Rainfall 0.00 in
Snow Depth Not available.
UV 5 out of 12
Pollen Not available.
Air Quality Not available.
Flu Activity Not available.
METAR EGNC 311520Z 23014KT 200V260 9999 SCT025 SCT030 16/07 Q1014

More Conditions Fewer Conditions

10-Day Weather Forecast

×

Almanac

Astronomy

Jul. 31, 2015 Rise Set
Actual Time
Civil Twilight
Nautical Twilight
Astronomical Twilight
Moon
Length of Visible Light
Length of Day
Tomorrow will be .
, % of the Moon is Illuminated

Today's Extremes

Country Highs Country Lows

Community

WunderPhotos

Upload Photos

1,842,685 photos uploaded!

WunderBlogs® & News

Nearby

Air Quality

  Air Quality AQ Index Pollutant
Not available.

Snow Depth

Station Depth Elevation

Earthquake Activity

City Distance Mag. Time & Date
Minimum magnitude displayed is 2.5.

Coastal Water Temperatures

Place Temperature

Stations

Nearby Weather Stations

Station Location Temp. Windchill Dew Point Humidity Wind Precip. Elev Updated Type